createdAt,value
2024-03-07T00:00:20.017Z,98671.34
2024-03-07T00:03:09.678Z,98677.16
2024-03-07T00:05:41.166Z,98674.25
2024-03-07T00:08:09.391Z,98677.88
2024-03-07T00:10:38.500Z,98676.00
2024-03-07T00:13:06.855Z,98669.63
2024-03-07T00:15:35.890Z,98674.13
2024-03-07T00:18:04.878Z,98671.38
2024-03-07T00:20:33.954Z,98664.28
2024-03-07T00:23:04.394Z,98670.41
2024-03-07T00:25:33.306Z,98674.59
2024-03-07T00:28:04.460Z,98676.22
2024-03-07T00:30:35.147Z,98673.09
2024-03-07T00:33:03.637Z,98672.63
2024-03-07T00:35:32.356Z,98670.00
2024-03-07T00:38:00.892Z,98676.13
2024-03-07T00:40:31.036Z,98670.53
2024-03-07T00:43:00.583Z,98671.16
2024-03-07T00:45:29.142Z,98671.16
2024-03-07T00:47:57.800Z,98666.66
2024-03-07T00:50:26.751Z,98672.38
2024-03-07T00:52:55.301Z,98669.06
2024-03-07T00:55:23.902Z,98662.63
2024-03-07T00:57:53.705Z,98664.09
2024-03-07T01:00:22.968Z,98665.41
2024-03-07T01:02:54.612Z,98662.47
2024-03-07T01:05:23.503Z,98664.22
2024-03-07T01:07:52.001Z,98669.84
2024-03-07T01:10:21.326Z,98660.97
2024-03-07T01:12:51.486Z,98667.06
2024-03-07T01:15:21.688Z,98673.59
2024-03-07T01:17:50.389Z,98661.84
2024-03-07T01:20:19.784Z,98661.34
2024-03-07T01:22:48.382Z,98661.34
2024-03-07T01:25:17.981Z,98661.44
2024-03-07T01:27:48.831Z,98654.00
2024-03-07T01:30:18.026Z,98654.44
2024-03-07T01:32:47.885Z,98645.75
2024-03-07T01:35:16.871Z,98642.69
2024-03-07T01:37:45.377Z,98642.78
2024-03-07T01:40:15.429Z,98643.09
2024-03-07T01:42:43.805Z,98642.13
2024-03-07T01:45:12.498Z,98650.16
2024-03-07T01:47:41.155Z,98651.88
2024-03-07T01:50:12.043Z,98647.19
2024-03-07T01:52:42.721Z,98640.91
2024-03-07T01:55:12.198Z,98639.78
2024-03-07T01:57:42.363Z,98653.44
2024-03-07T02:00:12.912Z,98637.31
2024-03-07T02:02:41.775Z,98639.31
2024-03-07T02:05:11.984Z,98634.72
2024-03-07T02:07:41.279Z,98641.28
2024-03-07T02:10:11.937Z,98633.09
2024-03-07T02:12:42.105Z,98636.44
2024-03-07T02:15:11.537Z,98633.34
2024-03-07T02:17:41.362Z,98636.44
2024-03-07T02:20:14.451Z,98622.00
2024-03-07T02:22:44.373Z,98620.50
2024-03-07T02:25:13.802Z,98625.16
2024-03-07T02:27:42.369Z,98622.63
2024-03-07T02:30:13.611Z,98630.41
2024-03-07T02:32:42.190Z,98624.81
2024-03-07T02:35:12.631Z,98623.66
2024-03-07T02:37:41.101Z,98628.59
2024-03-07T02:40:13.149Z,98630.41
2024-03-07T02:42:44.947Z,98628.03
2024-03-07T02:45:16.443Z,98634.00
2024-03-07T02:47:45.746Z,98630.63
2024-03-07T02:50:16.224Z,98622.63
2024-03-07T02:52:45.259Z,98626.66
2024-03-07T02:55:15.299Z,98632.75
2024-03-07T02:57:43.967Z,98627.84
2024-03-07T03:00:21.597Z,98628.47
2024-03-07T03:02:51.635Z,98634.91
2024-03-07T03:05:20.874Z,98639.50
2024-03-07T03:07:55.260Z,98624.19
2024-03-07T03:10:28.162Z,98623.91
2024-03-07T03:12:59.158Z,98636.75
2024-03-07T03:15:28.262Z,98632.22
2024-03-07T03:18:01.352Z,98641.72
2024-03-07T03:20:36.603Z,98642.66
2024-03-07T03:23:15.266Z,98631.00
2024-03-07T03:25:51.615Z,98629.66
2024-03-07T03:28:22.496Z,98635.72
2024-03-07T03:30:51.536Z,98631.56
2024-03-07T03:33:22.123Z,98628.88
2024-03-07T03:35:51.058Z,98634.69
2024-03-07T03:38:21.686Z,98632.34
2024-03-07T03:40:51.750Z,98641.94
2024-03-07T03:43:21.000Z,98632.56
2024-03-07T03:45:49.889Z,98636.94
2024-03-07T03:48:19.259Z,98646.03
2024-03-07T03:50:48.639Z,98631.34
2024-03-07T03:53:17.141Z,98632.84
2024-03-07T03:55:46.263Z,98642.84
2024-03-07T03:58:18.161Z,98640.75
2024-03-07T04:00:46.790Z,98644.59
2024-03-07T04:03:15.476Z,98647.56
2024-03-07T04:05:44.811Z,98642.34
2024-03-07T04:08:13.210Z,98639.38
2024-03-07T04:10:41.940Z,98632.06
2024-03-07T04:13:10.328Z,98636.38
2024-03-07T04:15:42.870Z,98635.59
2024-03-07T04:18:13.500Z,98646.72
2024-03-07T04:20:45.622Z,98643.16
2024-03-07T04:23:14.452Z,98651.03
2024-03-07T04:25:43.865Z,98638.97
2024-03-07T04:28:12.565Z,98645.91
2024-03-07T04:30:44.301Z,98646.78
2024-03-07T04:33:12.886Z,98650.75
2024-03-07T04:35:41.942Z,98638.66
2024-03-07T04:38:12.909Z,98650.09
2024-03-07T04:40:41.388Z,98648.41
2024-03-07T04:43:09.940Z,98641.53
2024-03-07T04:45:38.767Z,98643.06
2024-03-07T04:48:09.934Z,98644.41
2024-03-07T04:50:39.405Z,98656.88
2024-03-07T04:53:08.352Z,98670.31
2024-03-07T04:55:36.994Z,98665.22
2024-03-07T04:58:05.946Z,98654.19
2024-03-07T05:00:36.478Z,98664.22
2024-03-07T05:03:06.289Z,98665.63
2024-03-07T05:05:36.436Z,98653.44
2024-03-07T05:08:05.535Z,98667.28
2024-03-07T05:10:34.180Z,98669.31
2024-03-07T05:13:02.639Z,98671.56
2024-03-07T05:15:32.350Z,98662.78
2024-03-07T05:18:01.085Z,98671.06
2024-03-07T05:20:31.668Z,98678.22
2024-03-07T05:23:01.664Z,98671.13
2024-03-07T05:25:32.808Z,98669.13
2024-03-07T05:28:03.818Z,98676.16
2024-03-07T05:30:33.869Z,98671.38
2024-03-07T05:33:03.521Z,98682.78
2024-03-07T05:35:32.896Z,98678.19
2024-03-07T05:38:06.108Z,98679.16
2024-03-07T05:40:34.803Z,98674.69
2024-03-07T05:43:03.683Z,98676.75
2024-03-07T05:45:32.272Z,98688.31
2024-03-07T05:48:17.677Z,98690.34
2024-03-07T05:50:47.815Z,98687.16
2024-03-07T05:53:19.503Z,98680.75
2024-03-07T05:55:48.472Z,98690.03
2024-03-07T05:58:17.027Z,98686.84
2024-03-07T06:00:47.919Z,98709.59
2024-03-07T06:03:17.847Z,98700.88
2024-03-07T06:05:49.594Z,98697.75
2024-03-07T06:08:19.917Z,98703.19
2024-03-07T06:10:51.635Z,98699.94
2024-03-07T06:13:20.128Z,98705.09
2024-03-07T06:15:50.052Z,98708.53
2024-03-07T06:18:18.859Z,98704.53
2024-03-07T06:20:48.185Z,98698.03
2024-03-07T06:23:18.402Z,98704.81
2024-03-07T06:25:52.095Z,98719.81
2024-03-07T06:28:20.720Z,98702.94
2024-03-07T06:30:50.268Z,98705.50
2024-03-07T06:33:21.198Z,98702.41
2024-03-07T06:35:53.320Z,98713.47
2024-03-07T06:38:22.784Z,98713.72
2024-03-07T06:40:54.030Z,98706.31
2024-03-07T06:43:22.711Z,98712.66
2024-03-07T06:45:51.419Z,98713.00
2024-03-07T06:48:20.499Z,98723.13
2024-03-07T06:50:49.297Z,98728.22
2024-03-07T06:53:18.173Z,98714.91
2024-03-07T06:55:47.297Z,98720.72
2024-03-07T06:58:18.351Z,98719.50
2024-03-07T07:00:46.508Z,98714.25
2024-03-07T07:03:15.646Z,98711.50
2024-03-07T07:05:45.451Z,98715.72
2024-03-07T07:08:14.924Z,98715.75
2024-03-07T07:10:43.922Z,98715.47
2024-03-07T07:13:12.774Z,98717.59
2024-03-07T07:15:43.041Z,98713.84
2024-03-07T07:18:12.061Z,98720.34
2024-03-07T07:20:40.908Z,98723.13
2024-03-07T07:23:09.301Z,98719.28
2024-03-07T07:25:38.305Z,98712.84
2024-03-07T07:28:09.378Z,98726.16
2024-03-07T07:30:38.489Z,98725.72
2024-03-07T07:33:08.475Z,98725.78
2024-03-07T07:35:37.594Z,98720.47
2024-03-07T07:38:08.442Z,98728.69
2024-03-07T07:40:37.564Z,98729.03
2024-03-07T07:43:06.254Z,98726.53
2024-03-07T07:45:37.090Z,98714.81
2024-03-07T07:48:09.012Z,98724.97
2024-03-07T07:50:37.704Z,98724.94
2024-03-07T07:53:08.772Z,98720.13
2024-03-07T07:55:37.733Z,98728.28
2024-03-07T07:58:06.325Z,98728.31
2024-03-07T08:00:36.960Z,98729.94
2024-03-07T08:03:08.467Z,98725.09
2024-03-07T08:05:38.669Z,98727.72
2024-03-07T08:08:09.316Z,98730.91
2024-03-07T08:10:39.639Z,98728.84
2024-03-07T08:13:09.866Z,98728.00
2024-03-07T08:15:38.861Z,98736.03
2024-03-07T08:18:11.024Z,98733.97
2024-03-07T08:20:44.416Z,98735.38
2024-03-07T08:23:14.299Z,98739.38
2024-03-07T08:25:43.118Z,98740.75
2024-03-07T08:28:11.632Z,98736.97
2024-03-07T08:30:40.407Z,98737.81
2024-03-07T08:33:11.627Z,98744.78
2024-03-07T08:35:41.009Z,98739.41
2024-03-07T08:38:11.084Z,98740.88
2024-03-07T08:40:41.152Z,98741.09
2024-03-07T08:43:09.642Z,98741.63
2024-03-07T08:45:38.537Z,98741.88
2024-03-07T08:48:08.703Z,98741.75
2024-03-07T08:50:40.348Z,98740.84
2024-03-07T08:53:10.223Z,98741.19
2024-03-07T08:55:39.067Z,98748.25
2024-03-07T08:58:09.334Z,98748.13
2024-03-07T09:00:39.965Z,98753.50
2024-03-07T09:03:12.564Z,98747.84
2024-03-07T09:05:44.053Z,98746.75
2024-03-07T09:08:13.254Z,98763.06
2024-03-07T09:10:43.701Z,98759.72
2024-03-07T09:13:12.625Z,98762.88
2024-03-07T09:15:41.380Z,98764.16
2024-03-07T09:18:10.524Z,98754.91
2024-03-07T09:20:40.236Z,98766.72
2024-03-07T09:23:10.964Z,98765.81
2024-03-07T09:25:41.248Z,98774.06
2024-03-07T09:28:09.748Z,98768.22
2024-03-07T09:30:40.177Z,98769.94
2024-03-07T09:33:13.445Z,98779.84
2024-03-07T09:35:42.361Z,98771.38
2024-03-07T09:38:12.915Z,98782.50
2024-03-07T09:40:41.651Z,98782.25
2024-03-07T09:43:12.354Z,98785.72
2024-03-07T09:45:46.820Z,98785.16
2024-03-07T09:48:18.889Z,98781.41
2024-03-07T09:50:49.132Z,98796.59
2024-03-07T09:53:19.917Z,98788.13
2024-03-07T09:55:49.019Z,98785.91
2024-03-07T09:58:18.005Z,98781.63
2024-03-07T10:00:48.245Z,98793.72
2024-03-07T10:03:18.868Z,98792.63
2024-03-07T10:05:47.776Z,98802.19
2024-03-07T10:08:16.517Z,98805.19
2024-03-07T10:10:48.942Z,98804.56
2024-03-07T10:13:18.749Z,98801.34
2024-03-07T10:15:48.914Z,98802.28
2024-03-07T10:18:20.328Z,98801.16
2024-03-07T10:20:49.816Z,98793.16
2024-03-07T10:23:21.886Z,98796.72
2024-03-07T10:25:52.342Z,98802.31
2024-03-07T10:28:22.066Z,98798.41
2024-03-07T10:30:52.653Z,98799.50
2024-03-07T10:33:21.375Z,98797.19
2024-03-07T10:35:51.697Z,98802.28
2024-03-07T10:38:20.741Z,98802.13
2024-03-07T10:40:51.560Z,98799.97
2024-03-07T10:43:21.999Z,98804.66
2024-03-07T10:45:53.119Z,98806.06
2024-03-07T10:48:25.761Z,98801.84
2024-03-07T10:51:02.862Z,98797.88
2024-03-07T10:53:35.361Z,98809.53
2024-03-07T10:56:23.097Z,98813.53
2024-03-07T10:59:00.600Z,98807.09
2024-03-07T11:01:34.623Z,98804.47
2024-03-07T11:04:05.515Z,98807.00
2024-03-07T11:06:35.154Z,98801.91
2024-03-07T11:09:11.466Z,98802.06
2024-03-07T11:11:43.624Z,98814.19
2024-03-07T11:14:13.711Z,98805.13
2024-03-07T11:16:43.126Z,98795.25
2024-03-07T11:19:20.856Z,98802.59
2024-03-07T11:21:52.516Z,98811.44
2024-03-07T11:24:34.008Z,98808.22
2024-03-07T11:27:06.002Z,98793.19
2024-03-07T11:29:45.926Z,98787.53
2024-03-07T11:32:16.185Z,98801.59
2024-03-07T11:34:48.018Z,98791.88
2024-03-07T11:37:24.297Z,98788.94
2024-03-07T11:39:55.180Z,98792.69
2024-03-07T11:42:30.134Z,98783.63
2024-03-07T11:44:59.556Z,98779.59
2024-03-07T11:47:30.893Z,98779.91
2024-03-07T11:50:00.442Z,98777.22
2024-03-07T11:52:30.015Z,98769.44
2024-03-07T11:55:05.700Z,98772.13
2024-03-07T11:57:36.491Z,98765.59
2024-03-07T12:00:09.904Z,98768.66
2024-03-07T12:02:39.663Z,98766.47
2024-03-07T12:05:08.985Z,98769.94
2024-03-07T12:07:39.733Z,98767.53
2024-03-07T12:10:11.519Z,98765.06
2024-03-07T12:12:41.857Z,98762.00
2024-03-07T12:15:21.174Z,98771.53
2024-03-07T12:17:51.823Z,98765.50
2024-03-07T12:20:32.432Z,98776.00
2024-03-07T12:23:04.483Z,98764.31
2024-03-07T12:25:35.586Z,98765.28
2024-03-07T12:28:07.588Z,98763.31
2024-03-07T12:30:43.054Z,98765.03
2024-03-07T12:33:12.122Z,98767.97
2024-03-07T12:35:43.264Z,98773.66
2024-03-07T12:38:14.736Z,98756.97
2024-03-07T12:40:46.568Z,98765.09
2024-03-07T12:43:19.001Z,98765.94
2024-03-07T12:45:50.357Z,98757.81
2024-03-07T12:48:19.207Z,98752.25
2024-03-07T12:50:48.420Z,98749.53
2024-03-07T12:53:19.569Z,98763.31
2024-03-07T12:55:47.942Z,98763.06
2024-03-07T12:58:18.347Z,98763.25
2024-03-07T13:00:46.583Z,98770.00
2024-03-07T13:03:15.984Z,98782.56
2024-03-07T13:05:44.518Z,98762.22
2024-03-07T13:08:13.869Z,98765.06
2024-03-07T13:10:42.706Z,98774.47
2024-03-07T13:13:12.390Z,98775.31
2024-03-07T13:15:43.834Z,98775.53
2024-03-07T13:18:12.706Z,98777.22
2024-03-07T13:20:44.775Z,98785.09
2024-03-07T13:23:13.619Z,98774.22
2024-03-07T13:25:42.553Z,98774.31
2024-03-07T13:28:15.102Z,98778.63
2024-03-07T13:30:50.437Z,98777.09
2024-03-07T13:33:20.364Z,98779.94
2024-03-07T13:35:48.901Z,98771.56
2024-03-07T13:38:17.959Z,98766.06
2024-03-07T13:40:46.679Z,98774.88
2024-03-07T13:43:16.402Z,98780.47
2024-03-07T13:45:46.591Z,98769.75
2024-03-07T13:48:15.570Z,98771.28
2024-03-07T13:50:55.969Z,98770.72
2024-03-07T13:53:34.573Z,98772.06
2024-03-07T13:56:42.376Z,98765.88
2024-03-07T13:59:39.722Z,98779.41
2024-03-07T14:02:26.062Z,98765.16
2024-03-07T14:05:16.988Z,98767.78
2024-03-07T14:07:58.443Z,98760.88
2024-03-07T14:11:05.605Z,98781.44
2024-03-07T14:13:44.503Z,98759.19
2024-03-07T14:16:25.177Z,98759.72
2024-03-07T14:19:37.890Z,98759.03
2024-03-07T14:22:29.032Z,98763.41
2024-03-07T14:25:18.775Z,98767.28
2024-03-07T14:28:09.316Z,98763.97
2024-03-07T14:30:45.071Z,98778.00
2024-03-07T14:33:17.980Z,98761.56
2024-03-07T14:36:06.436Z,98760.13
2024-03-07T14:38:49.682Z,98761.38
2024-03-07T14:41:18.890Z,98763.69
2024-03-07T14:43:47.846Z,98768.19
2024-03-07T14:46:18.001Z,98761.66
2024-03-07T14:48:46.593Z,98755.75
2024-03-07T14:51:17.097Z,98762.47
2024-03-07T14:53:46.864Z,98766.91
2024-03-07T14:56:15.321Z,98773.31
2024-03-07T14:58:43.972Z,98763.88
2024-03-07T15:01:13.405Z,98768.31
2024-03-07T15:03:46.815Z,98765.69
2024-03-07T15:06:17.087Z,98758.50
2024-03-07T15:08:45.708Z,98765.84
2024-03-07T15:11:18.775Z,98757.91
2024-03-07T15:13:48.996Z,98763.47
2024-03-07T15:16:28.971Z,98755.16
2024-03-07T15:19:02.352Z,98761.75
2024-03-07T15:21:31.942Z,98753.75
2024-03-07T15:24:01.426Z,98747.56
2024-03-07T15:26:32.500Z,98750.34
2024-03-07T15:29:02.524Z,98755.88
2024-03-07T15:31:31.400Z,98751.63
2024-03-07T15:34:00.314Z,98760.94
2024-03-07T15:36:30.751Z,98747.94
2024-03-07T15:39:05.170Z,98748.09
2024-03-07T15:41:34.845Z,98756.88
2024-03-07T15:44:03.644Z,98755.59
2024-03-07T15:46:31.899Z,98763.56
2024-03-07T15:49:01.936Z,98759.41
2024-03-07T15:51:30.404Z,98748.59
2024-03-07T15:54:00.660Z,98763.09
2024-03-07T15:56:29.301Z,98756.03
2024-03-07T15:58:58.247Z,98772.72
2024-03-07T16:01:26.624Z,98767.19
2024-03-07T16:03:56.067Z,98764.56
2024-03-07T16:06:24.395Z,98777.63
2024-03-07T16:08:53.158Z,98759.00
2024-03-07T16:11:25.581Z,98765.63
2024-03-07T16:13:54.573Z,98771.84
2024-03-07T16:16:22.990Z,98770.09
2024-03-07T16:18:53.839Z,98782.81
2024-03-07T16:21:23.739Z,98778.00
2024-03-07T16:23:54.828Z,98775.44
2024-03-07T16:26:24.810Z,98782.69
2024-03-07T16:28:53.477Z,98785.09
2024-03-07T16:31:21.855Z,98786.72
2024-03-07T16:33:50.627Z,98784.59
2024-03-07T16:36:19.146Z,98788.78
2024-03-07T16:38:47.843Z,98774.69
2024-03-07T16:41:16.480Z,98779.13
2024-03-07T16:43:47.880Z,98784.44
2024-03-07T16:46:18.068Z,98811.94
2024-03-07T16:48:47.992Z,98796.53
2024-03-07T16:51:19.255Z,98792.66
2024-03-07T16:53:48.163Z,98802.78
2024-03-07T16:56:17.187Z,98797.63
2024-03-07T16:58:48.504Z,98796.31
2024-03-07T17:01:16.988Z,98809.13
2024-03-07T17:03:45.789Z,98807.06
2024-03-07T17:06:14.111Z,98798.16
2024-03-07T17:08:43.103Z,98801.88
2024-03-07T17:11:14.547Z,98811.25
2024-03-07T17:13:44.182Z,98815.03
2024-03-07T17:16:14.048Z,98814.78
2024-03-07T17:18:43.021Z,98813.38
2024-03-07T17:21:11.966Z,98811.44
2024-03-07T17:23:40.581Z,98809.84
2024-03-07T17:26:09.054Z,98816.09
2024-03-07T17:28:37.611Z,98819.66
2024-03-07T17:31:06.829Z,98815.84
2024-03-07T17:33:41.084Z,98824.34
2024-03-07T17:36:11.111Z,98824.22
2024-03-07T17:38:39.988Z,98825.34
2024-03-07T17:41:09.421Z,98826.28
2024-03-07T17:43:38.618Z,98824.84
2024-03-07T17:46:08.350Z,98838.19
2024-03-07T17:48:38.977Z,98830.81
2024-03-07T17:51:08.414Z,98827.88
2024-03-07T17:53:38.650Z,98824.44
2024-03-07T17:56:07.895Z,98824.16
2024-03-07T17:58:37.093Z,98831.19
2024-03-07T18:01:08.381Z,98825.94
2024-03-07T18:03:39.392Z,98822.00
2024-03-07T18:06:10.395Z,98822.25
2024-03-07T18:08:45.538Z,98826.56
2024-03-07T18:11:20.313Z,98824.16
2024-03-07T18:13:49.095Z,98823.59
2024-03-07T18:16:18.595Z,98835.38
2024-03-07T18:18:51.114Z,98830.63
2024-03-07T18:21:20.143Z,98833.56
2024-03-07T18:23:50.317Z,98826.41
2024-03-07T18:26:19.946Z,98829.69
2024-03-07T18:28:48.579Z,98835.63
2024-03-07T18:31:19.379Z,98845.09
2024-03-07T18:33:52.269Z,98843.06
2024-03-07T18:36:22.796Z,98846.28
2024-03-07T18:38:53.922Z,98839.59
2024-03-07T18:41:22.344Z,98848.19
2024-03-07T18:43:51.899Z,98843.56
2024-03-07T18:46:20.551Z,98838.75
2024-03-07T18:48:51.217Z,98841.34
2024-03-07T18:51:24.304Z,98839.25
2024-03-07T18:53:54.843Z,98843.78
2024-03-07T18:56:24.741Z,98840.28
2024-03-07T18:58:53.495Z,98845.03
2024-03-07T19:01:22.403Z,98841.28
2024-03-07T19:03:52.398Z,98839.91
2024-03-07T19:06:21.033Z,98845.53
2024-03-07T19:08:49.954Z,98833.63
2024-03-07T19:11:19.473Z,98828.66
2024-03-07T19:13:48.374Z,98830.25
2024-03-07T19:16:17.150Z,98833.09
2024-03-07T19:18:47.239Z,98836.34
2024-03-07T19:21:17.276Z,98835.66
2024-03-07T19:23:47.694Z,98841.75
2024-03-07T19:26:21.191Z,98846.13
2024-03-07T19:28:50.614Z,98835.97
2024-03-07T19:31:19.260Z,98841.97
2024-03-07T19:33:48.069Z,98837.72
2024-03-07T19:36:18.030Z,98843.78
2024-03-07T19:38:48.925Z,98836.19
2024-03-07T19:41:18.040Z,98839.06
2024-03-07T19:43:46.663Z,98829.69
2024-03-07T19:46:15.037Z,98836.84
2024-03-07T19:48:45.164Z,98838.91
2024-03-07T19:51:13.917Z,98831.00
2024-03-07T19:53:44.297Z,98832.25
2024-03-07T19:56:22.503Z,98838.50
2024-03-07T19:58:51.299Z,98830.06
2024-03-07T20:01:19.771Z,98836.47
2024-03-07T20:03:48.472Z,98838.75
2024-03-07T20:06:16.855Z,98841.25
2024-03-07T20:08:47.526Z,98829.53
2024-03-07T20:11:15.981Z,98840.50
2024-03-07T20:13:44.915Z,98832.38
2024-03-07T20:16:14.476Z,98832.72
2024-03-07T20:18:45.244Z,98826.84
2024-03-07T20:21:13.882Z,98822.34
2024-03-07T20:23:42.954Z,98824.28
2024-03-07T20:26:12.905Z,98823.59
2024-03-07T20:28:41.655Z,98831.78
2024-03-07T20:31:10.269Z,98830.97
2024-03-07T20:33:39.372Z,98826.56
2024-03-07T20:36:10.313Z,98824.75
2024-03-07T20:38:39.924Z,98822.00
2024-03-07T20:41:08.425Z,98819.41
2024-03-07T20:43:40.003Z,98827.50
2024-03-07T20:46:08.624Z,98837.09
2024-03-07T20:48:37.981Z,98833.22
2024-03-07T20:51:07.541Z,98832.06
2024-03-07T20:53:36.608Z,98834.88
2024-03-07T20:56:08.013Z,98825.94
2024-03-07T20:58:37.666Z,98829.09
2024-03-07T21:01:10.834Z,98828.91
2024-03-07T21:03:42.666Z,98825.19
2024-03-07T21:06:13.045Z,98822.31
2024-03-07T21:08:43.722Z,98829.47
2024-03-07T21:11:13.485Z,98830.00
2024-03-07T21:13:43.152Z,98821.41
2024-03-07T21:16:13.593Z,98822.34
2024-03-07T21:18:42.770Z,98835.00
2024-03-07T21:21:11.886Z,98821.63
2024-03-07T21:23:41.723Z,98819.25
2024-03-07T21:26:13.353Z,98815.59
2024-03-07T21:28:42.117Z,98815.13
2024-03-07T21:31:12.768Z,98817.72
2024-03-07T21:33:41.771Z,98814.59
2024-03-07T21:36:11.299Z,98817.66
2024-03-07T21:38:40.244Z,98816.19
2024-03-07T21:41:10.196Z,98818.19
2024-03-07T21:43:38.915Z,98812.09
2024-03-07T21:46:07.715Z,98811.34
2024-03-07T21:48:39.765Z,98805.88
2024-03-07T21:51:11.629Z,98801.16
2024-03-07T21:53:45.431Z,98805.34
2024-03-07T21:56:14.435Z,98811.66
2024-03-07T21:58:43.092Z,98801.31
2024-03-07T22:01:13.903Z,98801.91
2024-03-07T22:03:44.367Z,98804.13
2024-03-07T22:06:15.732Z,98809.16
2024-03-07T22:08:44.026Z,98813.28
2024-03-07T22:11:17.537Z,98803.78
2024-03-07T22:13:47.667Z,98804.75
2024-03-07T22:16:16.826Z,98801.00
2024-03-07T22:18:48.093Z,98799.19
2024-03-07T22:21:17.215Z,98795.59
2024-03-07T22:23:46.070Z,98797.50
2024-03-07T22:26:14.913Z,98799.19
2024-03-07T22:28:43.611Z,98791.56
2024-03-07T22:31:12.669Z,98793.63
2024-03-07T22:33:41.954Z,98782.94
2024-03-07T22:36:12.143Z,98783.53
2024-03-07T22:38:40.670Z,98786.03
2024-03-07T22:41:09.405Z,98786.13
2024-03-07T22:43:38.092Z,98789.13
2024-03-07T22:46:08.576Z,98783.41
2024-03-07T22:48:37.413Z,98785.50
2024-03-07T22:51:07.172Z,98786.34
2024-03-07T22:53:37.277Z,98784.13
2024-03-07T22:56:06.524Z,98780.91
2024-03-07T22:58:35.045Z,98789.84
2024-03-07T23:01:05.593Z,98781.16
2024-03-07T23:03:34.356Z,98785.56
2024-03-07T23:06:03.290Z,98785.00
2024-03-07T23:08:31.631Z,98782.00
2024-03-07T23:11:01.955Z,98779.34
2024-03-07T23:13:30.373Z,98786.91
2024-03-07T23:15:59.191Z,98789.63
2024-03-07T23:18:27.593Z,98791.50
2024-03-07T23:20:57.732Z,98783.22
2024-03-07T23:23:26.191Z,98780.47
2024-03-07T23:25:55.029Z,98785.09
2024-03-07T23:28:25.166Z,98777.59
2024-03-07T23:30:53.877Z,98789.06
2024-03-07T23:33:22.825Z,98785.97
2024-03-07T23:35:51.499Z,98777.94
2024-03-07T23:38:19.935Z,98783.97
2024-03-07T23:40:48.548Z,98781.66
2024-03-07T23:43:19.157Z,98779.78
2024-03-07T23:45:49.234Z,98777.44
2024-03-07T23:48:18.740Z,98780.13
2024-03-07T23:50:47.618Z,98782.56
2024-03-07T23:53:15.959Z,98783.66
2024-03-07T23:55:44.654Z,98784.47
2024-03-07T23:58:12.933Z,98786.97
